createdAt,value
2023-05-13T00:01:50.219Z,98.30
2023-05-13T00:04:32.219Z,98.40
2023-05-13T00:07:24.241Z,98.30
2023-05-13T00:10:02.369Z,98.80
2023-05-13T00:12:36.652Z,99.00
2023-05-13T00:15:13.529Z,99.00
2023-05-13T00:17:52.074Z,99.30
2023-05-13T00:20:28.940Z,99.60
2023-05-13T00:23:11.603Z,99.80
2023-05-13T00:25:51.610Z,99.90
2023-05-13T00:28:28.167Z,99.80
2023-05-13T00:31:06.996Z,99.90
2023-05-13T00:33:44.438Z,99.90
2023-05-13T00:36:22.869Z,99.90
2023-05-13T00:39:02.759Z,99.90
2023-05-13T00:41:42.440Z,99.90
2023-05-13T00:44:18.544Z,99.90
2023-05-13T00:46:53.601Z,99.90
2023-05-13T00:49:29.415Z,99.90
2023-05-13T00:52:07.828Z,99.90
2023-05-13T00:54:48.500Z,99.90
2023-05-13T00:57:28.185Z,99.90
2023-05-13T01:00:07.436Z,99.90
2023-05-13T01:02:47.246Z,99.90
2023-05-13T01:05:30.426Z,99.90
2023-05-13T01:08:10.534Z,99.90
2023-05-13T01:10:51.997Z,99.90
2023-05-13T01:13:29.315Z,99.90
2023-05-13T01:16:09.217Z,99.90
2023-05-13T01:18:53.229Z,99.90
2023-05-13T01:21:27.082Z,99.90
2023-05-13T01:24:10.058Z,99.90
2023-05-13T01:26:49.041Z,99.90
2023-05-13T01:29:28.223Z,99.90
2023-05-13T01:32:05.398Z,99.90
2023-05-13T01:34:41.748Z,99.90
2023-05-13T01:37:17.965Z,99.90
2023-05-13T01:39:57.004Z,99.90
2023-05-13T01:42:34.830Z,99.90
2023-05-13T01:45:17.033Z,99.90
2023-05-13T01:47:56.749Z,99.90
2023-05-13T01:50:35.330Z,99.90
2023-05-13T01:53:12.541Z,99.90
2023-05-13T01:55:51.497Z,99.90
2023-05-13T01:58:30.412Z,99.90
2023-05-13T02:01:06.271Z,99.90
2023-05-13T02:03:44.643Z,99.90
2023-05-13T02:06:24.800Z,99.90
2023-05-13T02:09:03.070Z,99.90
2023-05-13T02:11:42.695Z,99.90
2023-05-13T02:14:20.990Z,99.90
2023-05-13T02:16:58.041Z,99.90
2023-05-13T02:19:36.985Z,99.90
2023-05-13T02:22:13.328Z,99.90
2023-05-13T02:24:49.331Z,99.90
2023-05-13T02:27:29.785Z,99.90
2023-05-13T02:30:11.380Z,99.90
2023-05-13T02:32:45.041Z,99.90
2023-05-13T02:35:22.727Z,99.90
2023-05-13T02:38:00.227Z,99.90
2023-05-13T02:40:36.234Z,99.90
2023-05-13T02:43:14.559Z,99.90
2023-05-13T02:46:00.473Z,99.90
2023-05-13T02:48:38.172Z,99.90
2023-05-13T02:51:16.926Z,99.90
2023-05-13T02:53:51.872Z,99.90
2023-05-13T02:56:28.087Z,99.90
2023-05-13T02:59:07.313Z,99.90
2023-05-13T03:01:45.094Z,99.90
2023-05-13T03:04:21.173Z,99.90
2023-05-13T03:06:59.796Z,99.90
2023-05-13T03:09:35.477Z,99.90
2023-05-13T03:12:13.796Z,99.90
2023-05-13T03:14:49.270Z,99.90
2023-05-13T03:17:31.248Z,99.90
2023-05-13T03:20:11.363Z,99.90
2023-05-13T03:22:47.588Z,99.90
2023-05-13T03:25:24.676Z,99.90
2023-05-13T03:28:07.749Z,99.90
2023-05-13T03:30:47.663Z,99.90
2023-05-13T03:33:31.809Z,99.90
2023-05-13T03:36:08.853Z,99.90
2023-05-13T03:38:47.422Z,99.90
2023-05-13T03:41:23.208Z,99.90
2023-05-13T03:44:00.895Z,99.90
2023-05-13T03:46:40.629Z,99.90
2023-05-13T03:49:22.751Z,99.90
2023-05-13T03:51:58.350Z,99.90
2023-05-13T03:54:39.540Z,99.90
2023-05-13T03:57:14.228Z,99.90
2023-05-13T03:59:54.793Z,99.90
2023-05-13T04:02:33.598Z,99.90
2023-05-13T04:05:15.070Z,99.90
2023-05-13T04:07:53.059Z,99.90
2023-05-13T04:10:30.872Z,99.90
2023-05-13T04:13:10.134Z,99.90
2023-05-13T04:15:48.322Z,99.90
2023-05-13T04:18:29.971Z,99.90
2023-05-13T04:21:13.401Z,99.90
2023-05-13T04:23:50.529Z,99.90
2023-05-13T04:26:30.738Z,99.90
2023-05-13T04:29:10.603Z,99.90
2023-05-13T04:31:50.319Z,99.90
2023-05-13T04:34:25.457Z,99.90
2023-05-13T04:37:09.221Z,99.90
2023-05-13T04:39:46.784Z,99.90
2023-05-13T04:42:23.645Z,99.90
2023-05-13T04:45:01.162Z,99.90
2023-05-13T04:47:38.484Z,99.90
2023-05-13T04:50:15.913Z,99.90
2023-05-13T04:52:58.536Z,99.90
2023-05-13T04:55:35.777Z,99.90
2023-05-13T04:58:15.380Z,99.90
2023-05-13T05:00:51.075Z,99.90
2023-05-13T05:03:27.317Z,99.90
2023-05-13T05:06:04.862Z,99.90
2023-05-13T05:08:45.446Z,99.90
2023-05-13T05:11:22.001Z,99.90
2023-05-13T05:13:58.971Z,99.90
2023-05-13T05:16:34.252Z,99.90
2023-05-13T05:19:10.550Z,99.90
2023-05-13T05:21:47.802Z,99.90
2023-05-13T05:24:33.154Z,99.90
2023-05-13T05:27:14.084Z,99.90
2023-05-13T05:29:53.199Z,99.90
2023-05-13T05:32:30.987Z,99.90
2023-05-13T05:35:12.453Z,99.90
2023-05-13T05:37:53.936Z,99.90
2023-05-13T05:40:36.099Z,99.90
2023-05-13T05:43:12.117Z,99.90
2023-05-13T05:45:51.554Z,99.90
2023-05-13T05:48:33.782Z,99.90
2023-05-13T05:51:14.436Z,99.90
2023-05-13T05:53:54.507Z,99.90
2023-05-13T05:56:36.802Z,99.90
2023-05-13T05:59:17.020Z,99.90
2023-05-13T06:02:02.000Z,99.20
2023-05-13T06:04:46.233Z,99.60
2023-05-13T06:07:28.277Z,99.90
2023-05-13T06:10:16.143Z,99.10
2023-05-13T06:13:02.262Z,98.80
2023-05-13T06:18:53.664Z,98.20
2023-05-13T06:27:53.518Z,97.70
2023-05-13T06:30:37.165Z,97.30
2023-05-13T06:33:13.155Z,98.10
2023-05-13T06:38:48.731Z,97.30
2023-05-13T06:41:24.330Z,96.40
2023-05-13T06:44:05.448Z,96.10
2023-05-13T06:46:43.675Z,96.30
2023-05-13T06:49:24.686Z,95.70
2023-05-13T06:52:17.113Z,95.60
2023-05-13T06:55:00.297Z,95.50
2023-05-13T06:57:43.249Z,95.70
2023-05-13T07:00:23.495Z,95.70
2023-05-13T07:03:06.770Z,94.70
2023-05-13T07:05:54.584Z,94.80
2023-05-13T07:08:34.195Z,95.10
2023-05-13T07:11:17.766Z,95.50
2023-05-13T07:13:53.768Z,94.50
2023-05-13T07:16:37.260Z,94.00
2023-05-13T07:19:24.722Z,94.90
2023-05-13T07:22:03.658Z,94.00
2023-05-13T07:24:46.792Z,93.20
2023-05-13T07:27:39.690Z,93.80
2023-05-13T07:30:18.818Z,93.90
2023-05-13T07:33:04.441Z,93.50
2023-05-13T07:35:39.271Z,93.20
2023-05-13T07:38:19.551Z,93.40
2023-05-13T07:41:14.014Z,94.00
2023-05-13T07:43:59.791Z,94.20
2023-05-13T07:46:53.472Z,94.10
2023-05-13T07:49:36.460Z,93.90
2023-05-13T07:52:53.045Z,93.80
2023-05-13T07:58:21.050Z,94.30
2023-05-13T08:01:01.890Z,93.60
2023-05-13T08:12:52.998Z,92.90
2023-05-13T08:15:41.422Z,92.50
2023-05-13T08:18:38.880Z,92.40
2023-05-13T08:21:25.533Z,92.10
2023-05-13T08:24:15.484Z,91.80
2023-05-13T08:27:13.456Z,91.90
2023-05-13T08:32:48.700Z,91.50
2023-05-13T08:38:26.621Z,91.70
2023-05-13T08:41:10.578Z,91.30
2023-05-13T08:43:47.215Z,91.60
2023-05-13T08:58:24.172Z,88.40
2023-05-13T09:01:06.032Z,89.40
2023-05-13T09:03:46.251Z,88.90
2023-05-13T09:06:37.190Z,89.20
2023-05-13T09:09:16.079Z,90.20
2023-05-13T09:11:52.159Z,91.50
2023-05-13T09:24:16.749Z,93.80
2023-05-13T09:26:55.588Z,92.10
2023-05-13T09:29:32.892Z,93.10
2023-05-13T09:32:11.970Z,92.30
2023-05-13T09:34:51.947Z,90.70
2023-05-13T09:40:35.261Z,90.10
2023-05-13T09:43:15.881Z,91.40
2023-05-13T09:45:58.764Z,89.00
2023-05-13T09:48:50.404Z,87.20
2023-05-13T09:51:35.605Z,90.10
2023-05-13T09:54:17.660Z,88.80
2023-05-13T09:57:13.256Z,87.40
2023-05-13T09:59:54.768Z,86.70
2023-05-13T10:02:36.102Z,85.40
2023-05-13T10:05:15.946Z,85.40
2023-05-13T10:11:00.197Z,83.30
2023-05-13T10:13:42.420Z,82.80
2023-05-13T10:16:34.299Z,82.90
2023-05-13T11:04:53.149Z,74.80
2023-05-13T11:33:00.681Z,81.10
2023-05-13T11:35:46.511Z,80.70
2023-05-13T11:38:38.715Z,80.00
2023-05-13T11:41:18.406Z,79.60
2023-05-13T11:43:56.221Z,79.60
2023-05-13T11:46:36.386Z,80.50
2023-05-13T11:49:13.612Z,77.70
2023-05-13T11:52:21.967Z,78.20
2023-05-13T11:55:10.752Z,78.10
2023-05-13T11:58:01.955Z,78.20
2023-05-13T12:00:56.185Z,78.30
2023-05-13T12:03:40.904Z,77.50
2023-05-13T12:06:16.774Z,75.80
2023-05-13T12:08:57.331Z,76.60
2023-05-13T12:11:34.076Z,76.20
2023-05-13T12:14:14.366Z,77.10
2023-05-13T12:16:52.616Z,75.70
2023-05-13T12:19:34.706Z,76.50
2023-05-13T12:22:15.541Z,76.00
2023-05-13T12:25:00.460Z,75.50
2023-05-13T12:27:36.342Z,74.80
2023-05-13T12:30:20.518Z,75.00
2023-05-13T12:33:06.569Z,75.00
2023-05-13T12:35:43.330Z,75.60
2023-05-13T12:38:23.209Z,75.20
2023-05-13T12:41:01.533Z,76.60
2023-05-13T12:43:41.488Z,76.70
2023-05-13T12:46:21.704Z,77.00
2023-05-13T12:49:02.894Z,77.40
2023-05-13T12:51:40.604Z,76.90
2023-05-13T12:54:17.637Z,76.00
2023-05-13T12:57:10.152Z,76.70
2023-05-13T12:59:58.537Z,75.90
2023-05-13T13:02:39.915Z,77.00
2023-05-13T13:05:21.023Z,76.90
2023-05-13T13:08:25.007Z,77.30
2023-05-13T13:13:59.112Z,77.40
2023-05-13T13:16:40.327Z,77.00
2023-05-13T13:19:28.236Z,76.50
2023-05-13T13:22:11.010Z,77.40
2023-05-13T13:24:58.277Z,78.00
2023-05-13T13:27:43.372Z,78.50
2023-05-13T13:30:21.571Z,79.20
2023-05-13T13:33:12.855Z,80.10
2023-05-13T13:39:03.018Z,80.50
2023-05-13T15:45:07.860Z,83.20
2023-05-13T17:57:36.925Z,91.40
2023-05-13T18:15:57.431Z,95.40
2023-05-13T19:34:46.386Z,99.90
2023-05-13T19:50:04.618Z,99.90
2023-05-13T19:52:40.947Z,99.90
2023-05-13T19:58:38.370Z,99.90
2023-05-13T20:01:21.695Z,99.90
2023-05-13T20:04:00.202Z,99.90
2023-05-13T20:06:45.364Z,99.90
2023-05-13T20:09:24.081Z,99.90
2023-05-13T20:12:05.647Z,99.90
2023-05-13T20:14:52.154Z,99.90
2023-05-13T20:20:33.250Z,99.90
2023-05-13T20:23:17.001Z,99.90
2023-05-13T20:25:57.349Z,99.90
2023-05-13T20:28:35.103Z,99.90
2023-05-13T20:31:12.295Z,99.90
2023-05-13T20:33:49.891Z,99.90
2023-05-13T20:36:31.885Z,99.90
2023-05-13T20:39:06.992Z,99.90
2023-05-13T20:41:47.254Z,99.90
2023-05-13T20:44:22.638Z,99.90
2023-05-13T20:46:58.192Z,99.90
2023-05-13T20:49:39.285Z,99.90
2023-05-13T20:52:19.935Z,99.90
2023-05-13T20:54:55.572Z,99.90
2023-05-13T20:57:36.960Z,99.90
2023-05-13T21:00:15.078Z,99.90
2023-05-13T21:02:54.465Z,99.90
2023-05-13T21:05:31.606Z,99.90
2023-05-13T21:08:24.027Z,99.90
2023-05-13T21:11:01.905Z,99.90
2023-05-13T21:13:40.557Z,99.90
2023-05-13T21:16:17.286Z,99.90
2023-05-13T21:18:54.045Z,99.90
2023-05-13T21:21:33.964Z,99.90
2023-05-13T21:24:10.212Z,99.90
2023-05-13T21:26:50.106Z,99.90
2023-05-13T21:29:34.823Z,99.90
2023-05-13T21:32:13.592Z,99.90
2023-05-13T21:34:50.052Z,99.90
2023-05-13T21:37:27.115Z,99.90
2023-05-13T21:40:04.308Z,99.90
2023-05-13T21:42:40.633Z,99.90
2023-05-13T21:45:21.365Z,99.90
2023-05-13T21:47:57.270Z,99.90
2023-05-13T21:50:33.071Z,99.90
2023-05-13T21:53:10.451Z,99.90
2023-05-13T21:55:46.023Z,99.90
2023-05-13T21:58:23.596Z,99.90
2023-05-13T22:01:04.585Z,99.90
2023-05-13T22:03:41.166Z,99.90
2023-05-13T22:06:18.896Z,99.90
2023-05-13T22:08:57.957Z,99.90
2023-05-13T22:11:33.857Z,99.90
2023-05-13T22:14:12.578Z,99.90
2023-05-13T22:17:07.200Z,99.90
2023-05-13T22:19:44.191Z,99.90
2023-05-13T22:22:24.251Z,99.90
2023-05-13T22:25:00.791Z,99.90
2023-05-13T22:27:39.302Z,99.90
2023-05-13T22:30:17.272Z,99.90
2023-05-13T22:32:59.504Z,99.90
2023-05-13T22:35:37.093Z,99.90
2023-05-13T22:38:13.982Z,99.90
2023-05-13T22:40:53.463Z,99.90
2023-05-13T22:43:29.798Z,99.90
2023-05-13T22:46:08.553Z,99.90
2023-05-13T22:48:42.705Z,99.90
2023-05-13T22:51:21.486Z,99.90
2023-05-13T22:53:56.954Z,99.90
2023-05-13T22:59:29.746Z,99.90
2023-05-13T23:02:07.716Z,99.90
2023-05-13T23:04:44.276Z,99.90
2023-05-13T23:16:01.611Z,99.90
2023-05-13T23:18:37.852Z,99.90
